createdAt,value
2019-04-05T00:00:59.696Z,997.06
2019-04-05T00:01:59.484Z,997.08
2019-04-05T00:02:59.476Z,997.09
2019-04-05T00:03:59.468Z,997.03
2019-04-05T00:04:59.469Z,997.04
2019-04-05T00:05:59.455Z,997.03
2019-04-05T00:06:59.452Z,997.03
2019-04-05T00:07:59.444Z,997.01
2019-04-05T00:08:59.429Z,997.07
2019-04-05T00:09:59.427Z,997.08
2019-04-05T00:10:59.416Z,997.09
2019-04-05T00:11:59.410Z,997.08
2019-04-05T00:12:59.400Z,997.07
2019-04-05T00:13:59.390Z,997.05
2019-04-05T00:14:59.389Z,997.02
2019-04-05T00:15:59.381Z,997.06
2019-04-05T00:16:59.374Z,997.06
2019-04-05T00:17:59.360Z,997.08
2019-04-05T00:18:59.355Z,997.08
2019-04-05T00:19:59.351Z,997.06
2019-04-05T00:20:59.339Z,997.06
2019-04-05T00:21:59.337Z,997.04
2019-04-05T00:22:59.321Z,997.08
2019-04-05T00:23:59.317Z,997.10
2019-04-05T00:24:59.310Z,997.14
2019-04-05T00:25:59.304Z,997.14
2019-04-05T00:26:59.292Z,997.10
2019-04-05T00:27:59.284Z,997.09
2019-04-05T00:28:59.279Z,997.09
2019-04-05T00:29:59.272Z,997.13
2019-04-05T00:30:59.257Z,997.14
2019-04-05T00:31:59.252Z,997.17
2019-04-05T00:32:59.447Z,997.21
2019-04-05T00:33:59.241Z,997.21
2019-04-05T00:34:59.231Z,997.17
2019-04-05T00:35:59.222Z,997.21
2019-04-05T00:36:59.210Z,997.22
2019-04-05T00:37:59.203Z,997.20
2019-04-05T00:38:59.200Z,997.22
2019-04-05T00:39:59.194Z,997.20
2019-04-05T00:40:59.184Z,997.20
2019-04-05T00:41:59.177Z,997.19
2019-04-05T00:42:59.168Z,997.14
2019-04-05T00:43:59.162Z,997.15
2019-04-05T00:44:59.148Z,997.16
2019-04-05T00:45:59.149Z,997.20
2019-04-05T00:46:59.136Z,997.19
2019-04-05T00:47:59.120Z,997.13
2019-04-05T00:50:32.318Z,997.04
2019-04-05T00:50:59.103Z,997.05
2019-04-05T00:51:59.090Z,997.14
2019-04-05T00:52:59.084Z,997.20
2019-04-05T00:53:59.083Z,997.25
2019-04-05T00:54:59.072Z,997.27
2019-04-05T00:55:59.060Z,997.29
2019-04-05T00:56:59.056Z,997.31
2019-04-05T00:57:59.044Z,997.25
2019-04-05T00:58:59.034Z,997.25
2019-04-05T00:59:59.031Z,997.22
2019-04-05T01:00:59.025Z,997.24
2019-04-05T01:01:59.018Z,997.29
2019-04-05T01:02:59.009Z,997.28
2019-04-05T01:03:58.998Z,997.23
2019-04-05T01:04:58.989Z,997.26
2019-04-05T01:05:58.986Z,997.29
2019-04-05T01:06:58.975Z,997.29
2019-04-05T01:07:58.966Z,997.23
2019-04-05T01:08:58.960Z,997.25
2019-04-05T01:09:58.947Z,997.27
2019-04-05T01:10:58.941Z,997.24
2019-04-05T01:11:58.937Z,997.28
2019-04-05T01:12:58.927Z,997.31
2019-04-05T01:13:58.914Z,997.33
2019-04-05T01:14:58.913Z,997.33
2019-04-05T01:15:58.900Z,997.34
2019-04-05T01:16:58.896Z,997.35
2019-04-05T01:17:58.885Z,997.36
2019-04-05T01:18:58.878Z,997.35
2019-04-05T01:19:58.866Z,997.36
2019-04-05T01:20:58.868Z,997.39
2019-04-05T01:21:58.854Z,997.40
2019-04-05T01:22:58.843Z,997.41
2019-04-05T01:23:58.835Z,997.44
2019-04-05T01:24:58.827Z,997.43
2019-04-05T01:25:58.821Z,997.43
2019-04-05T01:26:58.814Z,997.44
2019-04-05T01:27:58.812Z,997.43
2019-04-05T01:28:58.797Z,997.44
2019-04-05T01:29:58.791Z,997.42
2019-04-05T01:30:58.788Z,997.43
2019-04-05T01:31:58.776Z,997.46
2019-04-05T01:32:58.771Z,997.42
2019-04-05T01:33:58.767Z,997.43
2019-04-05T01:34:58.748Z,997.43
2019-04-05T01:35:58.742Z,997.43
2019-04-05T01:36:58.734Z,997.43
2019-04-05T01:37:58.728Z,997.44
2019-04-05T01:38:58.721Z,997.41
2019-04-05T01:39:58.710Z,997.46
2019-04-05T01:40:58.705Z,997.40
2019-04-05T01:41:58.698Z,997.45
2019-04-05T01:42:58.692Z,997.43
2019-04-05T01:43:58.685Z,997.47
2019-04-05T01:44:58.679Z,997.48
2019-04-05T01:45:58.668Z,997.46
2019-04-05T01:46:58.662Z,997.50
2019-04-05T01:47:58.654Z,997.50
2019-04-05T01:48:58.646Z,997.52
2019-04-05T01:49:58.633Z,997.45
2019-04-05T01:50:58.631Z,997.44
2019-04-05T01:51:58.621Z,997.47
2019-04-05T01:52:58.609Z,997.41
2019-04-05T01:53:58.608Z,997.42
2019-04-05T01:54:58.601Z,997.42
2019-04-05T01:55:58.593Z,997.47
2019-04-05T01:56:58.582Z,997.45
2019-04-05T01:57:58.579Z,997.47
2019-04-05T01:58:58.562Z,997.50
2019-04-05T01:59:58.565Z,997.52
2019-04-05T02:00:58.556Z,997.49
2019-04-05T02:01:58.542Z,997.49
2019-04-05T02:02:58.532Z,997.47
2019-04-05T02:03:58.529Z,997.50
2019-04-05T02:04:58.519Z,997.52
2019-04-05T02:05:58.520Z,997.54
2019-04-05T02:06:58.505Z,997.53
2019-04-05T02:07:58.496Z,997.54
2019-04-05T02:08:58.485Z,997.56
2019-04-05T02:09:58.477Z,997.57
2019-04-05T02:10:58.472Z,997.58
2019-04-05T02:11:58.465Z,997.58
2019-04-05T02:12:58.456Z,997.61
2019-04-05T02:13:58.447Z,997.62
2019-04-05T02:16:06.322Z,997.67
2019-04-05T02:16:58.425Z,997.63
2019-04-05T02:17:58.425Z,997.62
2019-04-05T02:18:58.414Z,997.63
2019-04-05T02:19:58.406Z,997.60
2019-04-05T02:20:58.398Z,997.60
2019-04-05T02:21:58.391Z,997.59
2019-04-05T02:22:58.381Z,997.60
2019-04-05T02:23:58.372Z,997.60
2019-04-05T02:24:58.362Z,997.61
2019-04-05T02:25:58.362Z,997.62
2019-04-05T02:26:58.348Z,997.69
2019-04-05T02:27:58.343Z,997.70
2019-04-05T02:28:58.333Z,997.66
2019-04-05T02:29:58.324Z,997.71
2019-04-05T02:30:58.321Z,997.71
2019-04-05T02:31:58.310Z,997.76
2019-04-05T02:32:58.299Z,997.75
2019-04-05T02:33:58.305Z,997.77
2019-04-05T02:34:58.287Z,997.78
2019-04-05T02:35:58.293Z,997.79
2019-04-05T02:36:58.270Z,997.77
2019-04-05T02:37:58.263Z,997.75
2019-04-05T02:38:58.258Z,997.76
2019-04-05T02:39:58.246Z,997.81
2019-04-05T02:40:59.109Z,997.80
2019-04-05T02:41:58.235Z,997.81
2019-04-05T02:42:58.229Z,997.81
2019-04-05T02:43:58.217Z,997.77
2019-04-05T02:44:58.212Z,997.79
2019-04-05T02:45:58.205Z,997.78
2019-04-05T02:46:58.221Z,997.77
2019-04-05T02:47:58.191Z,997.78
2019-04-05T02:48:58.177Z,997.79
2019-04-05T02:49:58.378Z,997.82
2019-04-05T02:50:58.163Z,997.80
2019-04-05T02:51:58.159Z,997.84
2019-04-05T02:52:58.151Z,997.83
2019-04-05T02:53:58.141Z,997.84
2019-04-05T02:54:58.132Z,997.83
2019-04-05T02:55:58.129Z,997.82
2019-04-05T02:56:58.115Z,997.80
2019-04-05T02:57:58.107Z,997.75
2019-04-05T02:58:58.104Z,997.71
2019-04-05T02:59:58.097Z,997.72
2019-04-05T03:00:58.088Z,997.68
2019-04-05T03:01:58.091Z,997.72
2019-04-05T03:02:58.076Z,997.69
2019-04-05T03:03:58.084Z,997.66
2019-04-05T03:04:58.061Z,997.66
2019-04-05T03:05:58.048Z,997.65
2019-04-05T03:06:58.052Z,997.65
2019-04-05T03:07:58.037Z,997.64
2019-04-05T03:08:58.027Z,997.64
2019-04-05T03:09:58.020Z,997.65
2019-04-05T03:10:58.011Z,997.67
2019-04-05T03:11:58.003Z,997.67
2019-04-05T03:12:57.997Z,997.63
2019-04-05T03:13:57.985Z,997.64
2019-04-05T03:14:57.986Z,997.64
2019-04-05T03:15:57.981Z,997.66
2019-04-05T03:16:57.961Z,997.62
2019-04-05T03:17:57.962Z,997.61
2019-04-05T03:19:57.938Z,997.62
2019-04-05T03:20:57.934Z,997.63
2019-04-05T03:21:57.926Z,997.62
2019-04-05T03:22:57.913Z,997.64
2019-04-05T03:23:57.912Z,997.62
2019-04-05T03:24:57.903Z,997.65
2019-04-05T03:25:57.906Z,997.64
2019-04-05T03:26:57.884Z,997.56
2019-04-05T03:27:57.880Z,997.60
2019-04-05T03:28:57.877Z,997.59
2019-04-05T03:29:57.867Z,997.55
2019-04-05T03:30:57.853Z,997.57
2019-04-05T03:31:57.845Z,997.58
2019-04-05T03:33:57.874Z,997.62
2019-04-05T03:34:57.829Z,997.60
2019-04-05T03:35:57.816Z,997.55
2019-04-05T03:36:57.808Z,997.60
2019-04-05T03:37:57.807Z,997.56
2019-04-05T03:38:57.791Z,997.62
2019-04-05T03:39:57.790Z,997.66
2019-04-05T03:40:57.784Z,997.58
2019-04-05T03:41:57.773Z,997.59
2019-04-05T03:42:57.765Z,997.59
2019-04-05T03:43:57.756Z,997.59
2019-04-05T03:44:57.748Z,997.59
2019-04-05T03:45:57.742Z,997.53
2019-04-05T03:46:58.086Z,997.59
2019-04-05T03:47:57.725Z,997.55
2019-04-05T03:48:57.719Z,997.57
2019-04-05T03:49:57.713Z,997.54
2019-04-05T03:50:57.701Z,997.56
2019-04-05T03:51:57.694Z,997.56
2019-04-05T03:52:57.686Z,997.58
2019-04-05T03:53:57.677Z,997.57
2019-04-05T03:54:57.674Z,997.58
2019-04-05T03:55:57.664Z,997.58
2019-04-05T03:56:57.660Z,997.56
2019-04-05T03:57:57.648Z,997.59
2019-04-05T03:58:57.651Z,997.58
2019-04-05T03:59:57.635Z,997.64
2019-04-05T04:00:57.625Z,997.63
2019-04-05T04:01:57.681Z,997.64
2019-04-05T04:02:57.609Z,997.63
2019-04-05T04:03:57.607Z,997.63
2019-04-05T04:04:57.593Z,997.61
2019-04-05T04:05:57.597Z,997.64
2019-04-05T04:06:57.587Z,997.64
2019-04-05T04:07:57.573Z,997.65
2019-04-05T04:08:57.562Z,997.67
2019-04-05T04:09:57.567Z,997.77
2019-04-05T04:10:57.552Z,997.78
2019-04-05T04:11:57.545Z,997.81
2019-04-05T04:12:57.536Z,997.85
2019-04-05T04:13:57.535Z,997.85
2019-04-05T04:14:57.524Z,997.83
2019-04-05T04:15:57.524Z,997.80
2019-04-05T04:17:11.454Z,997.80
2019-04-05T04:17:57.507Z,997.75
2019-04-05T04:18:57.492Z,997.72
2019-04-05T04:19:57.479Z,997.71
2019-04-05T04:21:57.465Z,997.76
2019-04-05T04:22:57.462Z,997.77
2019-04-05T04:23:57.453Z,997.81
2019-04-05T04:24:57.443Z,997.83
2019-04-05T04:25:57.437Z,997.80
2019-04-05T04:26:57.432Z,997.79
2019-04-05T04:27:57.420Z,997.76
2019-04-05T04:28:57.419Z,997.72
2019-04-05T04:30:00.328Z,997.71
2019-04-05T04:30:57.399Z,997.71
2019-04-05T04:31:57.387Z,997.72
2019-04-05T04:32:57.382Z,997.71
2019-04-05T04:33:57.390Z,997.75
2019-04-05T04:34:57.373Z,997.70
2019-04-05T04:35:57.362Z,997.71
2019-04-05T04:36:57.355Z,997.74
2019-04-05T04:37:57.345Z,997.74
2019-04-05T04:38:57.338Z,997.76
2019-04-05T04:39:57.357Z,997.78
2019-04-05T04:40:57.321Z,997.76
2019-04-05T04:41:57.314Z,997.76
2019-04-05T04:42:57.313Z,997.73
2019-04-05T04:43:57.302Z,997.74
2019-04-05T04:45:11.032Z,997.76
2019-04-05T04:45:57.289Z,997.80
2019-04-05T04:46:57.274Z,997.82
2019-04-05T04:47:57.280Z,997.86
2019-04-05T04:48:57.267Z,997.89
2019-04-05T04:49:57.260Z,997.86
2019-04-05T04:50:57.250Z,997.84
2019-04-05T04:51:57.238Z,997.83
2019-04-05T04:52:57.237Z,997.81
2019-04-05T04:53:57.228Z,997.86
2019-04-05T04:54:57.222Z,997.91
2019-04-05T04:55:57.222Z,997.91
2019-04-05T04:56:57.202Z,997.91
2019-04-05T04:57:57.200Z,997.92
2019-04-05T04:58:57.192Z,997.93
2019-04-05T04:59:57.185Z,997.91
2019-04-05T05:00:57.178Z,997.94
2019-04-05T05:01:57.167Z,997.92
2019-04-05T05:02:57.163Z,997.95
2019-04-05T05:03:57.152Z,997.97
2019-04-05T05:04:57.146Z,997.94
2019-04-05T05:05:57.140Z,997.94
2019-04-05T05:06:57.126Z,997.98
2019-04-05T05:07:57.128Z,997.98
2019-04-05T05:08:57.112Z,998.03
2019-04-05T05:09:57.106Z,998.08
2019-04-05T05:10:57.099Z,998.12
2019-04-05T05:11:57.093Z,998.16
2019-04-05T05:12:57.087Z,998.14
2019-04-05T05:13:57.078Z,998.09
2019-04-05T05:14:57.099Z,998.08
2019-04-05T05:15:57.061Z,998.12
2019-04-05T05:16:57.055Z,998.11
2019-04-05T05:17:58.766Z,998.11
2019-04-05T05:18:57.042Z,998.14
2019-04-05T05:19:57.028Z,998.16
2019-04-05T05:20:57.020Z,998.21
2019-04-05T05:21:57.021Z,998.19
2019-04-05T05:22:57.011Z,998.20
2019-04-05T05:23:57.001Z,998.20
2019-04-05T05:24:57.000Z,998.22
2019-04-05T05:25:56.991Z,998.26
2019-04-05T05:26:56.982Z,998.29
2019-04-05T05:27:56.972Z,998.31
2019-04-05T05:28:56.965Z,998.27
2019-04-05T05:29:57.157Z,998.29
2019-04-05T05:30:56.948Z,998.26
2019-04-05T05:31:56.941Z,998.27
2019-04-05T05:32:56.937Z,998.26
2019-04-05T05:33:56.927Z,998.24
2019-04-05T05:35:02.198Z,998.24
2019-04-05T05:35:56.915Z,998.30
2019-04-05T05:36:56.902Z,998.31
2019-04-05T05:37:56.893Z,998.33
2019-04-05T05:38:56.886Z,998.35
2019-04-05T05:39:56.882Z,998.37
2019-04-05T05:40:56.879Z,998.35
2019-04-05T05:41:56.864Z,998.37
2019-04-05T05:42:56.857Z,998.37
2019-04-05T05:43:56.848Z,998.37
2019-04-05T05:44:56.845Z,998.37
2019-04-05T05:45:56.838Z,998.36
2019-04-05T05:46:56.826Z,998.34
2019-04-05T05:47:56.825Z,998.39
2019-04-05T05:48:56.814Z,998.34
2019-04-05T05:49:56.805Z,998.36
2019-04-05T05:50:56.799Z,998.37
2019-04-05T05:51:56.796Z,998.39
2019-04-05T05:52:56.788Z,998.38
2019-04-05T05:53:56.780Z,998.38
2019-04-05T05:54:56.771Z,998.36
2019-04-05T05:55:56.762Z,998.37
2019-04-05T05:56:56.755Z,998.37
2019-04-05T05:57:58.735Z,998.37
2019-04-05T05:58:59.554Z,998.37
2019-04-05T05:59:58.480Z,998.36
2019-04-05T06:00:56.726Z,998.37
2019-04-05T06:01:56.715Z,998.40
2019-04-05T06:02:56.711Z,998.39
2019-04-05T06:03:56.710Z,998.44
2019-04-05T06:04:56.702Z,998.44
2019-04-05T06:06:56.679Z,998.45
2019-04-05T06:07:58.708Z,998.48
2019-04-05T06:08:56.671Z,998.47
2019-04-05T06:09:56.658Z,998.48
2019-04-05T06:10:56.656Z,998.48
2019-04-05T06:11:56.649Z,998.50
2019-04-05T06:12:58.701Z,998.52
2019-04-05T06:13:56.627Z,998.52
2019-04-05T06:14:56.627Z,998.52
2019-04-05T06:15:56.620Z,998.52
2019-04-05T06:16:56.606Z,998.55
2019-04-05T06:18:04.621Z,998.50
2019-04-05T06:18:56.591Z,998.54
2019-04-05T06:19:56.586Z,998.56
2019-04-05T06:20:56.583Z,998.59
2019-04-05T06:21:56.575Z,998.57
2019-04-05T06:22:56.566Z,998.56
2019-04-05T06:23:56.558Z,998.53
2019-04-05T06:24:56.551Z,998.53
2019-04-05T06:25:56.545Z,998.52
2019-04-05T06:26:56.539Z,998.53
2019-04-05T06:27:59.646Z,998.52
2019-04-05T06:28:56.523Z,998.53
2019-04-05T06:29:56.515Z,998.53
2019-04-05T06:30:56.507Z,998.56
2019-04-05T06:31:56.505Z,998.58
2019-04-05T06:32:56.497Z,998.59
2019-04-05T06:33:56.492Z,998.57
2019-04-05T06:34:56.482Z,998.59
2019-04-05T06:35:56.473Z,998.60
2019-04-05T06:36:56.470Z,998.58
2019-04-05T06:37:56.468Z,998.56
2019-04-05T06:38:56.452Z,998.57
2019-04-05T06:39:56.448Z,998.60
2019-04-05T06:40:56.438Z,998.54
2019-04-05T06:41:56.436Z,998.52
2019-04-05T06:42:56.430Z,998.52
2019-04-05T06:43:56.422Z,998.49
2019-04-05T06:44:56.409Z,998.49
2019-04-05T06:45:56.545Z,998.45
2019-04-05T06:46:56.401Z,998.47
2019-04-05T06:47:56.391Z,998.44
2019-04-05T06:48:56.388Z,998.43
2019-04-05T06:49:56.383Z,998.48
2019-04-05T06:50:56.374Z,998.47
2019-04-05T06:51:56.366Z,998.51
2019-04-05T06:52:56.357Z,998.47
2019-04-05T06:53:56.355Z,998.52
2019-04-05T06:54:56.340Z,998.50
2019-04-05T06:55:59.441Z,998.53
2019-04-05T06:56:56.334Z,998.54
2019-04-05T06:57:56.337Z,998.55
2019-04-05T06:58:56.323Z,998.55
2019-04-05T06:59:56.314Z,998.59
2019-04-05T07:00:57.559Z,998.60
2019-04-05T07:01:56.498Z,998.60
2019-04-05T07:02:56.287Z,998.60
2019-04-05T07:03:56.288Z,998.61
2019-04-05T07:04:56.279Z,998.62
2019-04-05T07:05:56.273Z,998.64
2019-04-05T07:06:56.268Z,998.65
2019-04-05T07:07:56.260Z,998.71
2019-04-05T07:08:56.251Z,998.69
2019-04-05T07:09:56.245Z,998.70
2019-04-05T07:10:56.240Z,998.72
2019-04-05T07:11:56.235Z,998.71
2019-04-05T07:12:56.360Z,998.71
2019-04-05T07:13:56.218Z,998.73
2019-04-05T07:14:56.496Z,998.74
2019-04-05T07:15:56.207Z,998.76
2019-04-05T07:16:56.202Z,998.80
2019-04-05T07:17:56.191Z,998.81
2019-04-05T07:18:56.188Z,998.80
2019-04-05T07:19:56.181Z,998.81
2019-04-05T07:20:57.862Z,998.82
2019-04-05T07:21:56.169Z,998.83
2019-04-05T07:22:56.154Z,998.81
2019-04-05T07:23:56.155Z,998.80
2019-04-05T07:24:56.145Z,998.83
2019-04-05T07:25:56.140Z,998.84
2019-04-05T07:26:56.133Z,998.83
2019-04-05T07:27:56.126Z,998.82
2019-04-05T07:28:56.120Z,998.84
2019-04-05T07:29:56.317Z,998.83
2019-04-05T07:30:56.109Z,998.83
2019-04-05T07:31:56.096Z,998.85
2019-04-05T07:32:56.092Z,998.85
2019-04-05T07:33:56.457Z,998.82
2019-04-05T07:34:56.081Z,998.87
2019-04-05T07:35:56.084Z,998.86
2019-04-05T07:36:56.075Z,998.86
2019-04-05T07:37:56.062Z,998.87
2019-04-05T07:38:56.054Z,998.85
2019-04-05T07:39:56.046Z,998.86
2019-04-05T07:40:56.046Z,998.85
2019-04-05T07:41:56.035Z,998.88
2019-04-05T07:42:56.028Z,998.84
2019-04-05T07:43:56.022Z,998.83
2019-04-05T07:44:56.018Z,998.83
2019-04-05T07:45:56.081Z,998.84
2019-04-05T07:46:56.009Z,998.86
2019-04-05T07:47:56.001Z,998.87
2019-04-05T07:48:55.990Z,998.88
2019-04-05T07:49:55.997Z,998.86
2019-04-05T07:50:55.982Z,998.88
2019-04-05T07:51:55.979Z,998.83
2019-04-05T07:52:55.970Z,998.77
2019-04-05T07:53:55.964Z,998.81
2019-04-05T07:54:55.957Z,998.77
2019-04-05T07:55:55.950Z,998.77
2019-04-05T07:56:55.943Z,998.78
2019-04-05T07:57:55.937Z,998.80
2019-04-05T07:58:55.933Z,998.76
2019-04-05T07:59:55.922Z,998.74
2019-04-05T08:00:55.920Z,998.77
2019-04-05T08:01:55.912Z,998.70
2019-04-05T08:02:55.910Z,998.75
2019-04-05T08:03:58.068Z,998.76
2019-04-05T08:04:55.894Z,998.74
2019-04-05T08:05:55.888Z,998.76
2019-04-05T08:06:55.882Z,998.74
2019-04-05T08:07:55.885Z,998.77
2019-04-05T08:08:55.878Z,998.75
2019-04-05T08:09:55.874Z,998.74
2019-04-05T08:10:55.862Z,998.69
2019-04-05T08:11:55.859Z,998.68
2019-04-05T08:12:55.856Z,998.70
2019-04-05T08:13:55.856Z,998.70
2019-04-05T08:14:55.849Z,998.70
2019-04-05T08:15:55.837Z,998.75
2019-04-05T08:16:55.836Z,998.72
2019-04-05T08:17:55.826Z,998.79
2019-04-05T08:18:58.070Z,998.77
2019-04-05T08:19:55.828Z,998.81
2019-04-05T08:20:55.810Z,998.86
2019-04-05T08:21:55.810Z,998.83
2019-04-05T08:22:55.808Z,998.81
2019-04-05T08:23:55.794Z,998.84
2019-04-05T08:24:55.790Z,998.82
2019-04-05T08:25:55.792Z,998.86
2019-04-05T08:26:55.783Z,998.89
2019-04-05T08:27:55.779Z,998.88
2019-04-05T08:28:55.771Z,998.89
2019-04-05T08:29:55.765Z,998.90
2019-04-05T08:30:55.757Z,998.87
2019-04-05T08:31:55.752Z,998.92
2019-04-05T08:32:55.745Z,998.94
2019-04-05T08:33:55.742Z,998.93
2019-04-05T08:34:55.737Z,998.95
2019-04-05T08:35:55.729Z,998.90
2019-04-05T08:36:55.729Z,998.94
2019-04-05T08:37:55.723Z,998.95
2019-04-05T08:38:55.718Z,998.96
2019-04-05T08:39:55.707Z,998.94
2019-04-05T08:40:55.702Z,998.93
2019-04-05T08:41:55.696Z,998.97
2019-04-05T08:43:55.688Z,998.98
2019-04-05T08:44:55.685Z,998.97
2019-04-05T08:45:55.680Z,999.02
2019-04-05T08:46:55.677Z,999.02
2019-04-05T08:47:55.670Z,999.02
2019-04-05T08:48:55.667Z,999.05
2019-04-05T08:49:55.663Z,999.03
2019-04-05T08:50:55.663Z,999.00
2019-04-05T08:51:55.656Z,999.01
2019-04-05T08:52:55.648Z,998.98
2019-04-05T08:53:55.650Z,998.98
2019-04-05T08:54:55.642Z,999.00
2019-04-05T08:55:55.640Z,998.95
2019-04-05T08:56:55.631Z,998.92
2019-04-05T08:57:55.628Z,998.93
2019-04-05T08:58:55.620Z,998.94
2019-04-05T08:59:55.616Z,998.94
2019-04-05T09:00:55.615Z,998.92
2019-04-05T09:01:55.605Z,998.93
2019-04-05T09:02:55.732Z,998.96
2019-04-05T09:03:55.603Z,998.93
2019-04-05T09:04:55.588Z,998.98
2019-04-05T09:05:55.585Z,999.00
2019-04-05T09:06:55.581Z,999.00
2019-04-05T09:07:55.571Z,999.04
2019-04-05T09:08:55.573Z,999.04
2019-04-05T09:09:55.564Z,999.02
2019-04-05T09:10:55.557Z,999.03
2019-04-05T09:11:55.554Z,998.98
2019-04-05T09:12:55.557Z,998.97
2019-04-05T09:13:55.540Z,998.94
2019-04-05T09:14:55.543Z,998.97
2019-04-05T09:15:55.532Z,998.97
2019-04-05T09:16:55.526Z,998.92
2019-04-05T09:17:55.523Z,998.94
2019-04-05T09:18:55.519Z,998.92
2019-04-05T09:19:55.512Z,998.90
2019-04-05T09:20:55.509Z,998.93
2019-04-05T09:21:55.508Z,998.91
2019-04-05T09:22:55.501Z,998.94
2019-04-05T09:23:55.490Z,998.91
2019-04-05T09:24:55.492Z,998.95
2019-04-05T09:25:55.485Z,998.99
2019-04-05T09:26:55.480Z,998.96
2019-04-05T09:27:55.472Z,998.94
2019-04-05T09:28:55.473Z,998.97
2019-04-05T09:29:55.465Z,998.96
2019-04-05T09:30:55.466Z,998.97
2019-04-05T09:31:55.455Z,998.98
2019-04-05T09:32:55.450Z,999.03
2019-04-05T09:33:55.448Z,999.00
2019-04-05T09:34:55.445Z,999.00
2019-04-05T09:35:55.442Z,999.01
2019-04-05T09:36:55.448Z,998.99
2019-04-05T09:37:55.436Z,999.00
2019-04-05T09:38:55.425Z,998.99
2019-04-05T09:39:55.425Z,999.02
2019-04-05T09:40:55.421Z,999.03
2019-04-05T09:41:55.417Z,999.01
2019-04-05T09:42:55.412Z,999.01
2019-04-05T09:43:55.405Z,998.99
2019-04-05T09:44:55.405Z,998.98
2019-04-05T09:45:55.393Z,998.98
2019-04-05T09:46:55.395Z,998.97
2019-04-05T09:47:55.387Z,998.97
2019-04-05T09:48:55.385Z,998.99
2019-04-05T09:49:55.377Z,998.95
2019-04-05T09:50:55.372Z,999.01
2019-04-05T09:51:55.368Z,999.01
2019-04-05T09:52:55.367Z,999.02
2019-04-05T09:53:55.356Z,998.98
2019-04-05T09:54:55.349Z,999.00
2019-04-05T09:55:55.350Z,999.01
2019-04-05T09:56:56.782Z,998.99
2019-04-05T09:57:55.356Z,998.99
2019-04-05T09:58:55.329Z,999.01
2019-04-05T09:59:55.330Z,999.02
2019-04-05T10:00:55.319Z,999.00
2019-04-05T10:01:55.332Z,999.03
2019-04-05T10:02:55.313Z,999.05
2019-04-05T10:03:55.314Z,999.06
2019-04-05T10:04:55.305Z,999.08
2019-04-05T10:05:55.298Z,999.09
2019-04-05T10:06:55.293Z,999.04
2019-04-05T10:07:55.938Z,999.02
2019-04-05T10:08:55.284Z,999.06
2019-04-05T10:09:55.280Z,999.07
2019-04-05T10:10:55.274Z,999.05
2019-04-05T10:11:55.270Z,999.06
2019-04-05T10:12:55.264Z,999.05
2019-04-05T10:13:55.255Z,999.01
2019-04-05T10:14:55.254Z,999.04
2019-04-05T10:15:55.244Z,999.05
2019-04-05T10:16:55.243Z,999.05
2019-04-05T10:17:55.241Z,999.07
2019-04-05T10:18:55.232Z,999.07
2019-04-05T10:19:55.230Z,999.06
2019-04-05T10:20:55.227Z,999.08
2019-04-05T10:21:55.220Z,999.06
2019-04-05T10:22:55.209Z,999.07
2019-04-05T10:23:55.210Z,999.05
2019-04-05T10:24:55.206Z,999.06
2019-04-05T10:25:55.199Z,999.06
2019-04-05T10:26:55.196Z,999.05
2019-04-05T10:27:55.187Z,999.02
2019-04-05T10:28:55.183Z,999.03
2019-04-05T10:29:55.181Z,999.01
2019-04-05T10:30:55.168Z,998.99
2019-04-05T10:31:55.170Z,998.95
2019-04-05T10:32:55.161Z,998.92
2019-04-05T10:33:55.155Z,998.89
2019-04-05T10:34:55.168Z,998.90
2019-04-05T10:35:55.155Z,998.87
2019-04-05T10:36:55.140Z,998.88
2019-04-05T10:37:58.188Z,998.87
2019-04-05T10:38:55.130Z,998.91
2019-04-05T10:39:55.127Z,998.93
2019-04-05T10:40:55.116Z,998.96
2019-04-05T10:42:03.416Z,998.98
2019-04-05T10:42:55.110Z,998.95
2019-04-05T10:43:55.109Z,998.98
2019-04-05T10:44:55.104Z,999.00
2019-04-05T10:45:55.092Z,998.97
2019-04-05T10:46:55.093Z,998.93
2019-04-05T10:47:55.087Z,998.92
2019-04-05T10:48:55.083Z,998.88
2019-04-05T10:50:03.011Z,998.92
2019-04-05T10:50:55.066Z,998.92
2019-04-05T10:51:55.067Z,998.90
2019-04-05T10:52:55.063Z,998.94
2019-04-05T10:53:55.113Z,998.93
2019-04-05T10:54:57.794Z,998.96
2019-04-05T10:55:55.052Z,998.91
2019-04-05T10:56:55.043Z,998.92
2019-04-05T10:57:55.038Z,998.91
2019-04-05T10:58:55.033Z,998.85
2019-04-05T10:59:55.022Z,998.86
2019-04-05T11:00:55.019Z,998.88
2019-04-05T11:01:55.014Z,998.87
2019-04-05T11:02:55.008Z,998.91
2019-04-05T11:03:55.015Z,998.88
2019-04-05T11:04:55.003Z,998.92
2019-04-05T11:05:55.020Z,998.96
2019-04-05T11:06:54.989Z,998.87
2019-04-05T11:07:54.987Z,998.92
2019-04-05T11:08:54.980Z,998.91
2019-04-05T11:09:54.973Z,998.91
2019-04-05T11:10:54.970Z,998.89
2019-04-05T11:11:54.970Z,998.88
2019-04-05T11:12:54.960Z,998.90
2019-04-05T11:13:54.954Z,998.89
2019-04-05T11:14:54.954Z,998.91
2019-04-05T11:15:54.949Z,998.90
2019-04-05T11:16:58.794Z,998.90
2019-04-05T11:17:54.934Z,998.90
2019-04-05T11:18:54.941Z,998.92
2019-04-05T11:19:54.931Z,998.94
2019-04-05T11:20:54.928Z,998.95
2019-04-05T11:21:54.916Z,998.97
2019-04-05T11:22:54.915Z,998.96
2019-04-05T11:23:55.785Z,998.90
2019-04-05T11:24:54.905Z,998.85
2019-04-05T11:25:54.903Z,998.88
2019-04-05T11:26:54.895Z,998.86
2019-04-05T11:27:54.886Z,998.87
2019-04-05T11:28:54.882Z,998.86
2019-04-05T11:29:57.691Z,998.92
2019-04-05T11:30:54.876Z,998.91
2019-04-05T11:31:57.303Z,998.91
2019-04-05T11:32:54.869Z,998.91
2019-04-05T11:33:54.862Z,998.95
2019-04-05T11:34:54.856Z,998.95
2019-04-05T11:35:57.753Z,998.96
2019-04-05T11:36:54.843Z,998.94
2019-04-05T11:37:54.843Z,998.91
2019-04-05T11:38:54.836Z,998.96
2019-04-05T11:39:54.838Z,998.92
2019-04-05T11:40:54.827Z,998.92
2019-04-05T11:41:54.881Z,998.94
2019-04-05T11:42:54.818Z,998.99
2019-04-05T11:43:54.814Z,999.00
2019-04-05T11:44:54.808Z,999.02
2019-04-05T11:45:54.802Z,999.05
2019-04-05T11:46:54.800Z,999.06
2019-04-05T11:47:55.718Z,999.01
2019-04-05T11:48:54.789Z,999.01
2019-04-05T11:49:55.267Z,999.03
2019-04-05T11:50:54.778Z,999.01
2019-04-05T11:51:54.778Z,999.02
2019-04-05T11:52:54.771Z,999.02
2019-04-05T11:53:54.767Z,998.98
2019-04-05T11:54:54.764Z,998.96
2019-04-05T11:55:54.763Z,998.95
2019-04-05T11:56:54.749Z,998.96
2019-04-05T11:57:55.019Z,998.93
2019-04-05T11:58:54.746Z,998.91
2019-04-05T11:59:54.735Z,998.93
2019-04-05T12:00:54.733Z,998.89
2019-04-05T12:01:54.730Z,998.89
2019-04-05T12:02:54.742Z,998.84
2019-04-05T12:03:54.792Z,998.88
2019-04-05T12:04:54.715Z,998.88
2019-04-05T12:05:54.708Z,998.85
2019-04-05T12:08:00.463Z,998.86
2019-04-05T12:08:54.697Z,998.81
2019-04-05T12:09:54.691Z,998.87
2019-04-05T12:10:54.687Z,998.87
2019-04-05T12:11:54.685Z,998.82
2019-04-05T12:12:54.682Z,998.87
2019-04-05T12:13:54.677Z,998.86
2019-04-05T12:14:54.668Z,998.89
2019-04-05T12:15:54.661Z,998.85
2019-04-05T12:16:54.664Z,998.89
2019-04-05T12:17:54.654Z,998.88
2019-04-05T12:18:54.654Z,998.91
2019-04-05T12:19:54.648Z,998.95
2019-04-05T12:20:59.958Z,998.96
2019-04-05T12:21:54.641Z,998.99
2019-04-05T12:22:54.633Z,998.97
2019-04-05T12:23:54.624Z,998.94
2019-04-05T12:24:54.619Z,998.97
2019-04-05T12:25:54.901Z,998.94
2019-04-05T12:26:54.611Z,998.97
2019-04-05T12:28:05.712Z,998.98
2019-04-05T12:28:54.605Z,998.96
2019-04-05T12:29:54.601Z,998.97
2019-04-05T12:30:54.593Z,998.98
2019-04-05T12:31:54.591Z,998.99
2019-04-05T12:32:54.584Z,998.98
2019-04-05T12:33:54.579Z,998.96
2019-04-05T12:34:54.570Z,998.96
2019-04-05T12:35:56.635Z,998.94
2019-04-05T12:36:54.566Z,998.91